Impacts TAF Board
For situational awareness. Not to be used for flight planning purposes.
IDs:

KONP - Newport Muni, OR, US

Issued at 2320 UTC 18 Oct 2021
Updated at 0146 UTC 19 Oct 2021
Potential Impact None Slight Moderate High
Time0135Z 19/02Z 19/03Z 19/04Z 19/05Z 19/06Z 19/07Z 19/08Z 19/09Z 19/10Z 19/11Z 19/12Z 19/13Z 19/14Z>>
Type OBS PRVL PRVL PRVL PRVL PRVL PRVL PRVL PRVL PRVL PRVL PRVL PRVL PRVL
VIS 7 >6 >6 >6 >6 >6 >6 >6 >6 >6 >6 >6 >6 >6
CIG -- -- -- -- -- -- -- -- -- -- -- -- -- --
Cover CLR SCT SCT SCT SCT SCT SCT SCT SCT SCT SCT SCT SCT SCT
FltCat VFR VFR VFR VFR VFR VFR VFR VFR VFR VFR VFR VFR VFR VFR
WX -- -- -- -- -- -- -- -- -- -- -- -- -- --
WDir VRB VRB VRB VRB VRB 110 110 110 110 110 110 110 110 110
WSpd 0 3 3 3 3 6 6 6 6 6 6 6 6 6
WGst -- -- -- -- -- -- -- -- -- -- -- -- -- --
Raw TAF
KONP 182320Z 1900/1924 VRB03KT P6SM SCT250
  FM190600 11006KT P6SM SCT250
  FM191800 14010KT P6SM BKN250


Raw METAR
KONP 190135Z AUTO 00000KT 7SM CLR 08/07 A3002 RMK AO2
KONP 190115Z AUTO 00000KT 4SM HZ CLR 10/07 A3002 RMK AO2
KONP 190055Z AUTO 00000KT 7SM CLR 11/06 A3003 RMK AO2
KONP 190035Z AUTO 00000KT 7SM CLR 11/06 A3003 RMK AO2
KONP 190015Z AUTO 00000KT 10SM CLR 12/06 A3003 RMK AO2
KONP 182355Z AUTO 25003KT 10SM CLR 12/06 A3003 RMK AO2
KONP 182335Z AUTO 25003KT 10SM CLR 12/06 A3004 RMK AO2
KONP 182315Z AUTO 27004KT 10SM CLR 12/06 A3005 RMK AO2
KONP 182255Z AUTO 27005KT 10SM CLR 12/06 A3005 RMK AO2
KONP 182235Z AUTO 26004KT 10SM SCT039 12/06 A3005 RMK AO2

METAR Board
Radar Display
Forecast Discussion
For situational awareness. Not to be used for flight planning purposes.